sensor_id;sensor_type;location;lat;lon;timestamp;temperature;humidity
60868;DHT22;46702;48.370;10.794;2024-03-08T00:01:49;1.80;99.90
60868;DHT22;46702;48.370;10.794;2024-03-08T00:04:15;1.70;99.90
60868;DHT22;46702;48.370;10.794;2024-03-08T00:06:41;1.70;99.90
60868;DHT22;46702;48.370;10.794;2024-03-08T00:09:07;1.70;99.90
60868;DHT22;46702;48.370;10.794;2024-03-08T00:11:35;1.70;99.90
60868;DHT22;46702;48.370;10.794;2024-03-08T00:14:01;1.80;99.90
60868;DHT22;46702;48.370;10.794;2024-03-08T00:16:26;1.70;99.90
60868;DHT22;46702;48.370;10.794;2024-03-08T00:18:53;1.60;99.90
60868;DHT22;46702;48.370;10.794;2024-03-08T00:21:18;1.60;99.90
60868;DHT22;46702;48.370;10.794;2024-03-08T00:23:44;1.60;99.90
60868;DHT22;46702;48.370;10.794;2024-03-08T00:26:09;1.60;99.90
60868;DHT22;46702;48.370;10.794;2024-03-08T00:28:35;1.50;99.90
60868;DHT22;46702;48.370;10.794;2024-03-08T00:31:01;1.60;99.90
60868;DHT22;46702;48.370;10.794;2024-03-08T00:33:27;1.50;99.90
60868;DHT22;46702;48.370;10.794;2024-03-08T00:35:56;1.40;99.90
60868;DHT22;46702;48.370;10.794;2024-03-08T00:38:22;1.40;99.90
60868;DHT22;46702;48.370;10.794;2024-03-08T00:40:48;1.50;99.90
60868;DHT22;46702;48.370;10.794;2024-03-08T00:43:14;1.40;99.90
60868;DHT22;46702;48.370;10.794;2024-03-08T00:45:41;1.40;99.90
60868;DHT22;46702;48.370;10.794;2024-03-08T00:48:08;1.50;99.90
60868;DHT22;46702;48.370;10.794;2024-03-08T00:50:34;1.50;99.90
60868;DHT22;46702;48.370;10.794;2024-03-08T00:52:59;1.40;99.90
60868;DHT22;46702;48.370;10.794;2024-03-08T00:55:26;1.40;99.90
60868;DHT22;46702;48.370;10.794;2024-03-08T00:57:51;1.40;99.90
60868;DHT22;46702;48.370;10.794;2024-03-08T01:00:19;1.40;99.90
60868;DHT22;46702;48.370;10.794;2024-03-08T01:02:46;1.40;99.90
60868;DHT22;46702;48.370;10.794;2024-03-08T01:05:11;1.40;99.90
60868;DHT22;46702;48.370;10.794;2024-03-08T01:07:37;1.40;99.90
60868;DHT22;46702;48.370;10.794;2024-03-08T01:10:03;1.40;99.90
60868;DHT22;46702;48.370;10.794;2024-03-08T01:12:29;1.30;99.90
60868;DHT22;46702;48.370;10.794;2024-03-08T01:14:55;1.40;99.90
60868;DHT22;46702;48.370;10.794;2024-03-08T01:17:22;1.30;99.90
60868;DHT22;46702;48.370;10.794;2024-03-08T01:19:47;1.30;99.90
60868;DHT22;46702;48.370;10.794;2024-03-08T01:22:13;1.30;99.90
60868;DHT22;46702;48.370;10.794;2024-03-08T01:24:39;1.30;99.90
60868;DHT22;46702;48.370;10.794;2024-03-08T01:27:04;1.30;99.90
60868;DHT22;46702;48.370;10.794;2024-03-08T01:29:30;1.30;99.90
60868;DHT22;46702;48.370;10.794;2024-03-08T01:31:56;1.30;99.90
60868;DHT22;46702;48.370;10.794;2024-03-08T01:34:25;1.20;99.90
60868;DHT22;46702;48.370;10.794;2024-03-08T01:36:51;1.10;99.90
60868;DHT22;46702;48.370;10.794;2024-03-08T01:39:16;1.10;99.90
60868;DHT22;46702;48.370;10.794;2024-03-08T01:41:42;1.10;99.90
60868;DHT22;46702;48.370;10.794;2024-03-08T01:44:08;1.10;99.90
60868;DHT22;46702;48.370;10.794;2024-03-08T01:46:34;1.10;99.90
60868;DHT22;46702;48.370;10.794;2024-03-08T01:49:01;1.10;99.90
60868;DHT22;46702;48.370;10.794;2024-03-08T01:51:28;1.10;99.90
60868;DHT22;46702;48.370;10.794;2024-03-08T01:53:55;1.00;99.90
60868;DHT22;46702;48.370;10.794;2024-03-08T01:56:23;1.00;99.90
60868;DHT22;46702;48.370;10.794;2024-03-08T01:58:51;1.00;99.90
60868;DHT22;46702;48.370;10.794;2024-03-08T02:01:17;0.90;99.90
60868;DHT22;46702;48.370;10.794;2024-03-08T02:03:44;0.90;99.90
60868;DHT22;46702;48.370;10.794;2024-03-08T02:06:13;1.00;99.90
60868;DHT22;46702;48.370;10.794;2024-03-08T02:08:45;1.00;99.90
60868;DHT22;46702;48.370;10.794;2024-03-08T02:11:12;1.00;99.90
60868;DHT22;46702;48.370;10.794;2024-03-08T02:13:38;0.90;99.90
60868;DHT22;46702;48.370;10.794;2024-03-08T02:16:04;0.90;99.90
60868;DHT22;46702;48.370;10.794;2024-03-08T02:18:33;1.00;99.90
60868;DHT22;46702;48.370;10.794;2024-03-08T02:21:00;1.00;99.90
60868;DHT22;46702;48.370;10.794;2024-03-08T02:23:26;1.00;99.90
60868;DHT22;46702;48.370;10.794;2024-03-08T02:25:53;0.90;99.90
60868;DHT22;46702;48.370;10.794;2024-03-08T02:28:20;0.90;99.90
60868;DHT22;46702;48.370;10.794;2024-03-08T02:30:46;1.00;99.90
60868;DHT22;46702;48.370;10.794;2024-03-08T02:33:16;0.90;99.90
60868;DHT22;46702;48.370;10.794;2024-03-08T02:35:43;1.00;99.90
60868;DHT22;46702;48.370;10.794;2024-03-08T02:38:13;0.90;99.90
60868;DHT22;46702;48.370;10.794;2024-03-08T02:40:42;0.90;99.90
60868;DHT22;46702;48.370;10.794;2024-03-08T02:43:09;0.90;99.90
60868;DHT22;46702;48.370;10.794;2024-03-08T02:45:35;0.90;99.90
60868;DHT22;46702;48.370;10.794;2024-03-08T02:48:00;0.80;99.90
60868;DHT22;46702;48.370;10.794;2024-03-08T02:50:26;0.80;99.90
60868;DHT22;46702;48.370;10.794;2024-03-08T02:52:52;0.90;99.90
60868;DHT22;46702;48.370;10.794;2024-03-08T02:55:18;0.90;99.90
60868;DHT22;46702;48.370;10.794;2024-03-08T02:57:43;0.90;99.90
60868;DHT22;46702;48.370;10.794;2024-03-08T03:00:10;0.90;99.90
60868;DHT22;46702;48.370;10.794;2024-03-08T03:02:36;0.90;99.90
60868;DHT22;46702;48.370;10.794;2024-03-08T03:05:03;0.80;99.90
60868;DHT22;46702;48.370;10.794;2024-03-08T03:07:34;0.80;99.90
60868;DHT22;46702;48.370;10.794;2024-03-08T03:10:00;0.80;99.90
60868;DHT22;46702;48.370;10.794;2024-03-08T03:12:30;0.80;99.90
60868;DHT22;46702;48.370;10.794;2024-03-08T03:14:56;0.80;99.90
60868;DHT22;46702;48.370;10.794;2024-03-08T03:17:26;0.80;99.90
60868;DHT22;46702;48.370;10.794;2024-03-08T03:19:52;0.70;99.90
60868;DHT22;46702;48.370;10.794;2024-03-08T03:22:18;0.70;99.90
60868;DHT22;46702;48.370;10.794;2024-03-08T03:24:45;0.70;99.90
60868;DHT22;46702;48.370;10.794;2024-03-08T03:27:12;0.70;99.90
60868;DHT22;46702;48.370;10.794;2024-03-08T03:29:42;0.70;99.90
60868;DHT22;46702;48.370;10.794;2024-03-08T03:32:14;0.70;99.90
60868;DHT22;46702;48.370;10.794;2024-03-08T03:34:40;0.70;99.90
60868;DHT22;46702;48.370;10.794;2024-03-08T03:37:07;0.70;99.90
60868;DHT22;46702;48.370;10.794;2024-03-08T03:39:39;0.70;99.90
60868;DHT22;46702;48.370;10.794;2024-03-08T03:42:17;0.60;99.90
60868;DHT22;46702;48.370;10.794;2024-03-08T03:44:47;0.60;99.90
60868;DHT22;46702;48.370;10.794;2024-03-08T03:47:13;0.70;99.90
60868;DHT22;46702;48.370;10.794;2024-03-08T03:49:42;0.70;99.90
60868;DHT22;46702;48.370;10.794;2024-03-08T03:52:08;0.70;99.90
60868;DHT22;46702;48.370;10.794;2024-03-08T03:54:34;0.70;99.90
60868;DHT22;46702;48.370;10.794;2024-03-08T03:57:00;0.70;99.90
60868;DHT22;46702;48.370;10.794;2024-03-08T03:59:26;0.70;99.90
60868;DHT22;46702;48.370;10.794;2024-03-08T04:01:53;0.70;99.90
60868;DHT22;46702;48.370;10.794;2024-03-08T04:04:18;0.70;99.90
60868;DHT22;46702;48.370;10.794;2024-03-08T04:06:44;0.80;99.90
60868;DHT22;46702;48.370;10.794;2024-03-08T04:09:10;0.80;99.90
60868;DHT22;46702;48.370;10.794;2024-03-08T04:11:38;0.80;99.90
60868;DHT22;46702;48.370;10.794;2024-03-08T04:14:03;0.90;99.90
60868;DHT22;46702;48.370;10.794;2024-03-08T04:16:30;0.90;99.90
60868;DHT22;46702;48.370;10.794;2024-03-08T04:18:57;0.90;99.90
60868;DHT22;46702;48.370;10.794;2024-03-08T04:21:22;1.00;99.90
60868;DHT22;46702;48.370;10.794;2024-03-08T04:23:48;0.90;99.90
60868;DHT22;46702;48.370;10.794;2024-03-08T04:26:14;1.00;99.90
60868;DHT22;46702;48.370;10.794;2024-03-08T04:28:39;1.00;99.90
60868;DHT22;46702;48.370;10.794;2024-03-08T04:31:05;1.00;99.90
60868;DHT22;46702;48.370;10.794;2024-03-08T04:33:32;1.00;99.90
60868;DHT22;46702;48.370;10.794;2024-03-08T04:35:58;1.00;99.90
60868;DHT22;46702;48.370;10.794;2024-03-08T04:38:23;1.00;99.90
60868;DHT22;46702;48.370;10.794;2024-03-08T04:40:50;1.00;99.90
60868;DHT22;46702;48.370;10.794;2024-03-08T04:43:16;1.00;99.90
60868;DHT22;46702;48.370;10.794;2024-03-08T04:45:44;1.00;99.90
60868;DHT22;46702;48.370;10.794;2024-03-08T04:48:10;1.00;99.90
60868;DHT22;46702;48.370;10.794;2024-03-08T04:50:37;1.00;99.90
60868;DHT22;46702;48.370;10.794;2024-03-08T04:53:03;1.00;99.90
60868;DHT22;46702;48.370;10.794;2024-03-08T04:55:34;1.10;99.90
60868;DHT22;46702;48.370;10.794;2024-03-08T04:57:59;1.00;99.90
60868;DHT22;46702;48.370;10.794;2024-03-08T05:00:25;1.10;99.90
60868;DHT22;46702;48.370;10.794;2024-03-08T05:02:51;1.10;99.90
60868;DHT22;46702;48.370;10.794;2024-03-08T05:05:18;1.10;99.90
60868;DHT22;46702;48.370;10.794;2024-03-08T05:07:44;1.10;99.90
60868;DHT22;46702;48.370;10.794;2024-03-08T05:10:11;1.10;99.90
60868;DHT22;46702;48.370;10.794;2024-03-08T05:12:37;1.10;99.90
60868;DHT22;46702;48.370;10.794;2024-03-08T05:15:05;1.10;99.90
60868;DHT22;46702;48.370;10.794;2024-03-08T05:17:30;1.10;99.90
60868;DHT22;46702;48.370;10.794;2024-03-08T05:19:56;1.10;99.90
60868;DHT22;46702;48.370;10.794;2024-03-08T05:22:22;1.10;99.90
60868;DHT22;46702;48.370;10.794;2024-03-08T05:24:48;1.10;99.90
60868;DHT22;46702;48.370;10.794;2024-03-08T05:27:13;1.10;99.90
60868;DHT22;46702;48.370;10.794;2024-03-08T05:29:39;1.10;99.90
60868;DHT22;46702;48.370;10.794;2024-03-08T05:32:05;1.10;99.90
60868;DHT22;46702;48.370;10.794;2024-03-08T05:34:32;1.10;99.90
60868;DHT22;46702;48.370;10.794;2024-03-08T05:36:58;1.10;99.90
60868;DHT22;46702;48.370;10.794;2024-03-08T05:39:24;1.10;99.90
60868;DHT22;46702;48.370;10.794;2024-03-08T05:41:50;1.10;99.90
60868;DHT22;46702;48.370;10.794;2024-03-08T05:44:16;1.10;99.90
60868;DHT22;46702;48.370;10.794;2024-03-08T05:46:45;1.10;99.90
60868;DHT22;46702;48.370;10.794;2024-03-08T05:49:12;1.10;99.90
60868;DHT22;46702;48.370;10.794;2024-03-08T05:51:39;1.20;99.90
60868;DHT22;46702;48.370;10.794;2024-03-08T05:54:07;1.20;99.90
60868;DHT22;46702;48.370;10.794;2024-03-08T05:56:35;1.20;99.90
60868;DHT22;46702;48.370;10.794;2024-03-08T05:59:02;1.10;99.90
60868;DHT22;46702;48.370;10.794;2024-03-08T06:01:30;1.10;99.90
60868;DHT22;46702;48.370;10.794;2024-03-08T06:03:56;1.10;99.90
60868;DHT22;46702;48.370;10.794;2024-03-08T06:06:25;1.20;99.90
60868;DHT22;46702;48.370;10.794;2024-03-08T06:09:50;1.20;99.90
60868;DHT22;46702;48.370;10.794;2024-03-08T06:15:53;1.20;99.90
60868;DHT22;46702;48.370;10.794;2024-03-08T06:18:40;1.20;99.90
60868;DHT22;46702;48.370;10.794;2024-03-08T06:21:07;1.20;99.90
60868;DHT22;46702;48.370;10.794;2024-03-08T06:23:39;1.30;99.90
60868;DHT22;46702;48.370;10.794;2024-03-08T06:26:05;1.30;99.90
60868;DHT22;46702;48.370;10.794;2024-03-08T06:28:40;1.30;99.90
60868;DHT22;46702;48.370;10.794;2024-03-08T06:31:12;1.30;99.90
60868;DHT22;46702;48.370;10.794;2024-03-08T06:33:51;1.30;99.90
60868;DHT22;46702;48.370;10.794;2024-03-08T06:36:49;1.30;99.90
60868;DHT22;46702;48.370;10.794;2024-03-08T06:39:17;1.30;99.90
60868;DHT22;46702;48.370;10.794;2024-03-08T06:41:43;1.30;99.90
60868;DHT22;46702;48.370;10.794;2024-03-08T06:44:10;1.30;99.90
60868;DHT22;46702;48.370;10.794;2024-03-08T06:46:45;1.40;99.90
60868;DHT22;46702;48.370;10.794;2024-03-08T06:49:11;1.40;99.90
60868;DHT22;46702;48.370;10.794;2024-03-08T06:51:36;1.40;99.90
60868;DHT22;46702;48.370;10.794;2024-03-08T06:54:02;1.40;99.90
60868;DHT22;46702;48.370;10.794;2024-03-08T06:56:34;1.40;99.90
60868;DHT22;46702;48.370;10.794;2024-03-08T06:59:00;1.40;99.90
60868;DHT22;46702;48.370;10.794;2024-03-08T07:01:25;1.40;99.90
60868;DHT22;46702;48.370;10.794;2024-03-08T07:03:51;1.40;99.90
60868;DHT22;46702;48.370;10.794;2024-03-08T07:06:18;1.40;99.90
60868;DHT22;46702;48.370;10.794;2024-03-08T07:08:44;1.50;99.90
60868;DHT22;46702;48.370;10.794;2024-03-08T07:11:11;1.50;99.90
60868;DHT22;46702;48.370;10.794;2024-03-08T07:13:37;1.50;99.90
60868;DHT22;46702;48.370;10.794;2024-03-08T07:16:04;1.50;99.90
60868;DHT22;46702;48.370;10.794;2024-03-08T07:18:36;1.50;99.90
60868;DHT22;46702;48.370;10.794;2024-03-08T07:21:11;1.50;99.90
60868;DHT22;46702;48.370;10.794;2024-03-08T07:23:37;1.60;99.90
60868;DHT22;46702;48.370;10.794;2024-03-08T07:26:20;1.60;99.90
60868;DHT22;46702;48.370;10.794;2024-03-08T07:28:46;1.60;99.90
60868;DHT22;46702;48.370;10.794;2024-03-08T07:31:11;1.60;99.90
60868;DHT22;46702;48.370;10.794;2024-03-08T07:33:37;1.60;99.90
60868;DHT22;46702;48.370;10.794;2024-03-08T07:36:04;1.60;99.90
60868;DHT22;46702;48.370;10.794;2024-03-08T07:38:30;1.60;99.90
60868;DHT22;46702;48.370;10.794;2024-03-08T07:40:55;1.70;99.90
60868;DHT22;46702;48.370;10.794;2024-03-08T07:43:22;1.80;99.90
60868;DHT22;46702;48.370;10.794;2024-03-08T07:45:48;1.70;99.90
60868;DHT22;46702;48.370;10.794;2024-03-08T07:48:14;1.70;99.90
60868;DHT22;46702;48.370;10.794;2024-03-08T07:50:40;1.70;99.90
60868;DHT22;46702;48.370;10.794;2024-03-08T07:53:07;1.70;99.90
60868;DHT22;46702;48.370;10.794;2024-03-08T07:55:34;1.80;99.90
60868;DHT22;46702;48.370;10.794;2024-03-08T07:58:03;1.80;99.90
60868;DHT22;46702;48.370;10.794;2024-03-08T08:00:30;1.80;99.90
60868;DHT22;46702;48.370;10.794;2024-03-08T08:02:56;1.80;99.90
60868;DHT22;46702;48.370;10.794;2024-03-08T08:05:22;1.90;99.90
60868;DHT22;46702;48.370;10.794;2024-03-08T08:07:48;1.90;99.90
60868;DHT22;46702;48.370;10.794;2024-03-08T08:10:15;1.80;99.90
60868;DHT22;46702;48.370;10.794;2024-03-08T08:12:47;1.80;99.90
60868;DHT22;46702;48.370;10.794;2024-03-08T08:15:13;1.80;99.90
60868;DHT22;46702;48.370;10.794;2024-03-08T08:17:49;1.80;99.90
60868;DHT22;46702;48.370;10.794;2024-03-08T08:20:15;1.90;99.90
60868;DHT22;46702;48.370;10.794;2024-03-08T08:22:41;1.90;99.90
60868;DHT22;46702;48.370;10.794;2024-03-08T08:25:08;1.90;99.90
60868;DHT22;46702;48.370;10.794;2024-03-08T08:27:34;2.00;99.90
60868;DHT22;46702;48.370;10.794;2024-03-08T08:30:03;1.90;99.90
60868;DHT22;46702;48.370;10.794;2024-03-08T08:32:37;2.00;99.90
60868;DHT22;46702;48.370;10.794;2024-03-08T08:35:03;2.00;99.90
60868;DHT22;46702;48.370;10.794;2024-03-08T08:37:30;2.00;99.90
60868;DHT22;46702;48.370;10.794;2024-03-08T08:39:57;2.10;99.90
60868;DHT22;46702;48.370;10.794;2024-03-08T08:42:23;2.20;99.90
60868;DHT22;46702;48.370;10.794;2024-03-08T08:44:50;2.20;99.90
60868;DHT22;46702;48.370;10.794;2024-03-08T08:47:16;2.20;99.90
60868;DHT22;46702;48.370;10.794;2024-03-08T08:49:44;2.30;99.90
60868;DHT22;46702;48.370;10.794;2024-03-08T08:52:12;2.40;99.90
60868;DHT22;46702;48.370;10.794;2024-03-08T08:54:38;2.40;99.90
60868;DHT22;46702;48.370;10.794;2024-03-08T08:57:04;2.40;99.90
60868;DHT22;46702;48.370;10.794;2024-03-08T08:59:36;2.30;99.90
60868;DHT22;46702;48.370;10.794;2024-03-08T09:02:02;2.30;99.90
60868;DHT22;46702;48.370;10.794;2024-03-08T09:04:29;2.40;99.90
60868;DHT22;46702;48.370;10.794;2024-03-08T09:06:56;2.50;99.90
60868;DHT22;46702;48.370;10.794;2024-03-08T09:09:22;2.50;99.90
60868;DHT22;46702;48.370;10.794;2024-03-08T09:11:48;2.50;99.90
60868;DHT22;46702;48.370;10.794;2024-03-08T09:14:15;2.50;99.90
60868;DHT22;46702;48.370;10.794;2024-03-08T09:16:40;2.60;99.90
60868;DHT22;46702;48.370;10.794;2024-03-08T09:19:06;2.70;99.90
60868;DHT22;46702;48.370;10.794;2024-03-08T09:21:33;2.80;99.90
60868;DHT22;46702;48.370;10.794;2024-03-08T09:24:00;2.90;99.90
60868;DHT22;46702;48.370;10.794;2024-03-08T09:26:26;2.70;99.90
60868;DHT22;46702;48.370;10.794;2024-03-08T09:28:52;2.60;99.90
60868;DHT22;46702;48.370;10.794;2024-03-08T09:31:18;2.50;99.90
60868;DHT22;46702;48.370;10.794;2024-03-08T09:33:43;2.60;99.90
60868;DHT22;46702;48.370;10.794;2024-03-08T09:36:09;2.70;99.90
60868;DHT22;46702;48.370;10.794;2024-03-08T09:38:34;2.80;99.90
60868;DHT22;46702;48.370;10.794;2024-03-08T09:41:01;2.90;99.90
60868;DHT22;46702;48.370;10.794;2024-03-08T09:43:29;2.90;99.90
60868;DHT22;46702;48.370;10.794;2024-03-08T09:45:57;3.10;99.90
60868;DHT22;46702;48.370;10.794;2024-03-08T09:48:26;3.10;99.90
60868;DHT22;46702;48.370;10.794;2024-03-08T09:50:52;3.20;99.90
60868;DHT22;46702;48.370;10.794;2024-03-08T09:53:17;3.30;99.90
60868;DHT22;46702;48.370;10.794;2024-03-08T09:55:43;3.50;99.90
60868;DHT22;46702;48.370;10.794;2024-03-08T09:58:15;3.70;99.90
60868;DHT22;46702;48.370;10.794;2024-03-08T10:00:43;3.70;99.90
60868;DHT22;46702;48.370;10.794;2024-03-08T10:03:09;3.40;99.90
60868;DHT22;46702;48.370;10.794;2024-03-08T10:05:36;3.30;99.90
60868;DHT22;46702;48.370;10.794;2024-03-08T10:08:02;3.50;99.90
60868;DHT22;46702;48.370;10.794;2024-03-08T10:10:28;3.50;99.90
60868;DHT22;46702;48.370;10.794;2024-03-08T10:12:55;3.60;99.90
60868;DHT22;46702;48.370;10.794;2024-03-08T10:15:21;3.60;99.90
60868;DHT22;46702;48.370;10.794;2024-03-08T10:17:46;3.60;99.90
60868;DHT22;46702;48.370;10.794;2024-03-08T10:20:15;3.60;99.90
60868;DHT22;46702;48.370;10.794;2024-03-08T10:22:41;3.70;99.90
60868;DHT22;46702;48.370;10.794;2024-03-08T10:25:11;3.80;99.90
60868;DHT22;46702;48.370;10.794;2024-03-08T10:27:40;3.70;99.90
60868;DHT22;46702;48.370;10.794;2024-03-08T10:30:10;3.90;99.90
60868;DHT22;46702;48.370;10.794;2024-03-08T10:32:36;3.90;99.90
60868;DHT22;46702;48.370;10.794;2024-03-08T10:35:02;4.10;99.90
60868;DHT22;46702;48.370;10.794;2024-03-08T10:37:28;4.20;99.90
60868;DHT22;46702;48.370;10.794;2024-03-08T10:40:04;4.10;99.90
60868;DHT22;46702;48.370;10.794;2024-03-08T10:42:39;4.00;99.90
60868;DHT22;46702;48.370;10.794;2024-03-08T10:45:10;4.10;99.90
60868;DHT22;46702;48.370;10.794;2024-03-08T10:47:40;4.10;99.90
60868;DHT22;46702;48.370;10.794;2024-03-08T10:50:20;4.00;99.90
60868;DHT22;46702;48.370;10.794;2024-03-08T10:52:50;4.00;99.90
60868;DHT22;46702;48.370;10.794;2024-03-08T10:55:20;4.00;99.90
60868;DHT22;46702;48.370;10.794;2024-03-08T10:57:50;4.30;99.90
60868;DHT22;46702;48.370;10.794;2024-03-08T11:00:16;4.50;99.90
60868;DHT22;46702;48.370;10.794;2024-03-08T11:02:45;4.70;99.90
60868;DHT22;46702;48.370;10.794;2024-03-08T11:05:30;4.90;99.90
60868;DHT22;46702;48.370;10.794;2024-03-08T11:08:01;4.90;99.90
60868;DHT22;46702;48.370;10.794;2024-03-08T11:10:29;4.80;99.90
60868;DHT22;46702;48.370;10.794;2024-03-08T11:13:03;5.00;99.90
60868;DHT22;46702;48.370;10.794;2024-03-08T11:15:30;5.00;99.90
60868;DHT22;46702;48.370;10.794;2024-03-08T11:17:58;5.20;99.90
60868;DHT22;46702;48.370;10.794;2024-03-08T11:20:25;5.40;99.90
60868;DHT22;46702;48.370;10.794;2024-03-08T11:22:53;5.50;99.90
60868;DHT22;46702;48.370;10.794;2024-03-08T11:25:39;5.50;99.90
60868;DHT22;46702;48.370;10.794;2024-03-08T11:28:19;5.60;99.90
60868;DHT22;46702;48.370;10.794;2024-03-08T11:33:28;5.90;99.90
60868;DHT22;46702;48.370;10.794;2024-03-08T11:36:13;5.90;99.90
60868;DHT22;46702;48.370;10.794;2024-03-08T11:38:48;6.00;99.90
60868;DHT22;46702;48.370;10.794;2024-03-08T11:41:15;6.00;99.90
60868;DHT22;46702;48.370;10.794;2024-03-08T11:43:41;6.40;99.90
60868;DHT22;46702;48.370;10.794;2024-03-08T11:46:14;6.50;99.90
60868;DHT22;46702;48.370;10.794;2024-03-08T11:48:40;6.50;99.90
60868;DHT22;46702;48.370;10.794;2024-03-08T11:51:12;6.60;99.90
60868;DHT22;46702;48.370;10.794;2024-03-08T11:53:39;6.50;99.90
60868;DHT22;46702;48.370;10.794;2024-03-08T11:56:13;6.60;99.90
60868;DHT22;46702;48.370;10.794;2024-03-08T11:58:40;6.70;99.90
60868;DHT22;46702;48.370;10.794;2024-03-08T12:01:10;6.60;99.90
60868;DHT22;46702;48.370;10.794;2024-03-08T12:03:39;6.60;99.90
60868;DHT22;46702;48.370;10.794;2024-03-08T12:06:08;6.80;99.90
60868;DHT22;46702;48.370;10.794;2024-03-08T12:08:35;6.80;99.90
60868;DHT22;46702;48.370;10.794;2024-03-08T12:11:04;6.80;99.90
60868;DHT22;46702;48.370;10.794;2024-03-08T12:13:34;6.90;99.90
60868;DHT22;46702;48.370;10.794;2024-03-08T12:16:03;7.10;99.90
60868;DHT22;46702;48.370;10.794;2024-03-08T12:18:33;7.10;99.90
60868;DHT22;46702;48.370;10.794;2024-03-08T12:21:15;7.10;99.90
60868;DHT22;46702;48.370;10.794;2024-03-08T12:23:47;7.20;99.90
60868;DHT22;46702;48.370;10.794;2024-03-08T12:26:24;7.30;99.90
60868;DHT22;46702;48.370;10.794;2024-03-08T12:28:51;7.20;99.90
60868;DHT22;46702;48.370;10.794;2024-03-08T12:31:17;7.20;99.90
60868;DHT22;46702;48.370;10.794;2024-03-08T12:36:16;7.40;99.90
60868;DHT22;46702;48.370;10.794;2024-03-08T12:38:45;7.50;99.90
60868;DHT22;46702;48.370;10.794;2024-03-08T12:41:18;7.50;99.90
60868;DHT22;46702;48.370;10.794;2024-03-08T12:43:45;7.50;99.90
60868;DHT22;46702;48.370;10.794;2024-03-08T12:46:15;7.60;99.90
60868;DHT22;46702;48.370;10.794;2024-03-08T12:48:40;7.60;99.90
60868;DHT22;46702;48.370;10.794;2024-03-08T12:51:07;7.70;99.90
60868;DHT22;46702;48.370;10.794;2024-03-08T12:53:33;7.90;99.90
60868;DHT22;46702;48.370;10.794;2024-03-08T12:55:58;7.80;99.90
60868;DHT22;46702;48.370;10.794;2024-03-08T12:58:24;7.80;99.90
60868;DHT22;46702;48.370;10.794;2024-03-08T13:00:51;7.90;99.90
60868;DHT22;46702;48.370;10.794;2024-03-08T13:03:17;7.90;99.90
60868;DHT22;46702;48.370;10.794;2024-03-08T13:05:43;8.10;99.90
60868;DHT22;46702;48.370;10.794;2024-03-08T13:08:09;8.20;99.90
60868;DHT22;46702;48.370;10.794;2024-03-08T13:10:39;8.10;99.90
60868;DHT22;46702;48.370;10.794;2024-03-08T13:13:12;8.10;99.90
60868;DHT22;46702;48.370;10.794;2024-03-08T13:15:40;8.10;99.90
60868;DHT22;46702;48.370;10.794;2024-03-08T13:18:06;8.20;99.90
60868;DHT22;46702;48.370;10.794;2024-03-08T13:20:34;8.40;99.90
60868;DHT22;46702;48.370;10.794;2024-03-08T13:23:03;8.40;99.90
60868;DHT22;46702;48.370;10.794;2024-03-08T13:25:31;8.40;99.90
60868;DHT22;46702;48.370;10.794;2024-03-08T13:27:56;8.40;99.90
60868;DHT22;46702;48.370;10.794;2024-03-08T13:30:24;8.30;99.90
60868;DHT22;46702;48.370;10.794;2024-03-08T13:32:55;8.40;99.90
60868;DHT22;46702;48.370;10.794;2024-03-08T13:35:20;8.40;99.90
60868;DHT22;46702;48.370;10.794;2024-03-08T13:37:53;8.40;99.90
60868;DHT22;46702;48.370;10.794;2024-03-08T13:40:19;8.60;99.90
60868;DHT22;46702;48.370;10.794;2024-03-08T13:42:48;8.60;99.10
60868;DHT22;46702;48.370;10.794;2024-03-08T13:45:17;8.60;96.10
60868;DHT22;46702;48.370;10.794;2024-03-08T13:47:50;8.70;95.90
60868;DHT22;46702;48.370;10.794;2024-03-08T13:50:19;8.70;95.20
60868;DHT22;46702;48.370;10.794;2024-03-08T13:52:48;8.60;93.90
60868;DHT22;46702;48.370;10.794;2024-03-08T13:55:23;8.70;94.30
60868;DHT22;46702;48.370;10.794;2024-03-08T13:57:49;8.80;95.70
60868;DHT22;46702;48.370;10.794;2024-03-08T14:00:17;8.80;93.10
60868;DHT22;46702;48.370;10.794;2024-03-08T14:02:47;8.80;95.40
60868;DHT22;46702;48.370;10.794;2024-03-08T14:05:14;8.80;96.20
60868;DHT22;46702;48.370;10.794;2024-03-08T14:07:41;8.80;96.80
60868;DHT22;46702;48.370;10.794;2024-03-08T14:10:07;8.90;97.50
60868;DHT22;46702;48.370;10.794;2024-03-08T14:12:35;8.90;94.40
60868;DHT22;46702;48.370;10.794;2024-03-08T14:15:07;8.80;92.50
60868;DHT22;46702;48.370;10.794;2024-03-08T14:17:33;8.80;93.30
60868;DHT22;46702;48.370;10.794;2024-03-08T14:19:59;8.80;93.60
60868;DHT22;46702;48.370;10.794;2024-03-08T14:22:24;8.80;90.80
60868;DHT22;46702;48.370;10.794;2024-03-08T14:24:50;8.90;91.90
60868;DHT22;46702;48.370;10.794;2024-03-08T14:27:17;8.80;91.70
60868;DHT22;46702;48.370;10.794;2024-03-08T14:29:44;8.80;91.90
60868;DHT22;46702;48.370;10.794;2024-03-08T14:32:10;8.90;91.50
60868;DHT22;46702;48.370;10.794;2024-03-08T14:34:36;8.90;93.80
60868;DHT22;46702;48.370;10.794;2024-03-08T14:37:02;9.00;94.10
60868;DHT22;46702;48.370;10.794;2024-03-08T14:39:34;9.00;93.30
60868;DHT22;46702;48.370;10.794;2024-03-08T14:42:00;9.00;92.70
60868;DHT22;46702;48.370;10.794;2024-03-08T14:44:27;9.00;91.30
60868;DHT22;46702;48.370;10.794;2024-03-08T14:47:10;8.90;89.20
60868;DHT22;46702;48.370;10.794;2024-03-08T14:49:37;8.90;89.00
60868;DHT22;46702;48.370;10.794;2024-03-08T14:52:03;8.90;86.50
60868;DHT22;46702;48.370;10.794;2024-03-08T14:54:46;8.80;90.20
60868;DHT22;46702;48.370;10.794;2024-03-08T14:57:13;8.90;90.30
60868;DHT22;46702;48.370;10.794;2024-03-08T14:59:39;8.90;91.30
60868;DHT22;46702;48.370;10.794;2024-03-08T15:02:05;8.80;88.30
60868;DHT22;46702;48.370;10.794;2024-03-08T15:04:32;8.80;88.50
60868;DHT22;46702;48.370;10.794;2024-03-08T15:07:01;8.90;90.70
60868;DHT22;46702;48.370;10.794;2024-03-08T15:09:27;8.80;91.20
60868;DHT22;46702;48.370;10.794;2024-03-08T15:11:53;8.80;89.40
60868;DHT22;46702;48.370;10.794;2024-03-08T15:14:20;8.70;83.70
60868;DHT22;46702;48.370;10.794;2024-03-08T15:16:46;8.70;81.00
60868;DHT22;46702;48.370;10.794;2024-03-08T15:19:13;8.70;86.30
60868;DHT22;46702;48.370;10.794;2024-03-08T15:21:40;8.60;80.40
60868;DHT22;46702;48.370;10.794;2024-03-08T15:24:08;8.60;86.00
60868;DHT22;46702;48.370;10.794;2024-03-08T15:26:35;8.60;81.50
60868;DHT22;46702;48.370;10.794;2024-03-08T15:29:01;8.60;79.40
60868;DHT22;46702;48.370;10.794;2024-03-08T15:31:27;8.50;84.70
60868;DHT22;46702;48.370;10.794;2024-03-08T15:33:53;8.60;81.80
60868;DHT22;46702;48.370;10.794;2024-03-08T15:36:26;8.50;80.70
60868;DHT22;46702;48.370;10.794;2024-03-08T15:38:54;8.50;80.40
60868;DHT22;46702;48.370;10.794;2024-03-08T15:41:20;8.60;80.50
60868;DHT22;46702;48.370;10.794;2024-03-08T15:43:46;8.50;78.90